London, United Kingdom

1:09 AM GMT on February 10, 2016 (GMT +0000)
| | Change Station
CLOSE
Current Station
Personal Weather Station
Location: ,
Elevation: -9999 ft
Nearby Weather Stations

Elev -9999 ft 0.00 °N, 0.00 °E | Updated

Cloudy
Cloudy
40 °F
Feels Like 31 °F
N
13
Wind Variable Wind from WNW
Gusts 22 mph

Today
High -- | Low -- °F
--% Chance of Precip.
Yesterday
High -- | Low -- °F
Precip. -- in
Pressure 29.24 in
Visibility 6.2 miles
Clouds Overcast 2300 ft
Windchill 31 °F
Dew Point 36 °F
Humidity 83%
Rainfall -9999.00 in
Snow Depth Not available.
7:25 AM 5:05 PM
Waxing Crescent, 3% visible
METAR EGLL 100050Z AUTO 26012KT 9999 OVC023 06/02 Q0990 NOSIG
Pressure 29.24 in
Visibility 6.2 miles
Clouds Overcast 2300 ft
Windchill 31 °F
Dew Point 36 °F
Humidity 83%
Rainfall -9999.00 in
Snow Depth Not available.
7:25 AM 5:05 PM
Waxing Crescent, 3% visible
METAR EGLL 100050Z AUTO 26012KT 9999 OVC023 06/02 Q0990 NOSIG

10-Day Weather Forecast

Almanac

Astronomy

Feb. 10, 2016 Rise Set
Actual Time
Civil Twilight
Nautical Twilight
Astronomical Twilight
Moon
Length of Visible Light
Length of Day
Tomorrow will be .
, % of the Moon is Illuminated

Today's Extremes

Country Highs Country Lows

Community

WunderPhotos

Upload Photos

1,891,752 photos uploaded!

WunderBlog® & News

Nearby

Air Quality

  Air Quality AQ Index Pollutant
Not available.

Snow Depth

Station Depth Elevation

Earthquake Activity

City Distance Mag. Time & Date
Minimum magnitude displayed is 2.5.

Coastal Water Temperatures

Place Temperature

Stations

Nearby Weather Stations

Station Location Temp. Windchill Dew Point Humidity Wind Precip. Elev Updated Type